Pine Bluffs, WY

12:14 AM MDT on October 02, 2014 (GMT -0600)
Pine Bluffs Muni, Pine Bluffs | Change Station
CLOSE
Current Station
Airport
Location: Pine Bluffs Muni, Pine Bluffs,
Elevation: 5151 ft
Nearby Weather Stations

Elev 5151 ft 41.15 °N, 104.13 °W | Updated 19 minutes ago

Mostly Cloudy
Mostly Cloudy
37 °F
Feels Like 32 °F
N
7
Wind Variable Wind from NNW

Today
High -- | Low -- °F
--% Chance of Precip.
Yesterday
High -- | Low -- °F
Precip. -- in
6:54 AM 6:36 PM
First Quarter, 55% visible
Pressure 30.06 in
Visibility 10.0 miles
Clouds Mostly Cloudy 12000 ft
Windchill 32 °F
Dew Point 36 °F
Humidity 93%
Rainfall 0.00 in
Snow Depth Not available.
UV 0 out of 12
Pollen 3.40 out of 12
Air Quality Not available.
Flu Activity Not available.
METAR K82V 020555Z AUTO 33006KT 10SM BKN120 03/02 A3006 RMK AO2

More Conditions Fewer Conditions

Pressure 30.06 in
Visibility 10.0 miles
Clouds Mostly Cloudy 12000 ft
Windchill 32 °F
Dew Point 36 °F
Humidity 93%
Rainfall 0.00 in
Snow Depth Not available.
UV 0 out of 12
Pollen 3.40 out of 12
Air Quality Not available.
Flu Activity Not available.
METAR K82V 020555Z AUTO 33006KT 10SM BKN120 03/02 A3006 RMK AO2

More Conditions Fewer Conditions

10-Day Weather Forecast

Almanac

Astronomy

Oct. 02, 2014 Rise Set
Actual Time 6:54 AM MDT 6:36 PM MDT
Civil Twilight 6:26 AM MDT 7:03 PM MDT
Nautical Twilight 5:54 AM MDT 7:35 PM MDT
Astronomical Twilight 5:22 AM MDT 8:07 PM MDT
Moon 2:47 PM MDT 12:10 AM MDT
Length of Visible Light 12h 37m
Length of Day
11h 42m
Tomorrow will be 2m 43s shorter.
First Quarter, 55% of the Moon is Illuminated
Today
First Quarter
Oct 8
Full
Oct 15
Last Quarter
Oct 23
New
Oct 30
First Quarter

Community

WunderPhotos

Upload Photos

1,758,198 photos uploaded!

Nearby

Snow Depth

Station Depth Elevation
Blind Bull Summit 2 in 8900 ft
Gros Ventre Summit 1 in 8750 ft
Sand Lake 1 in 10050 ft
Snake River Station 0 in 6920 ft
Salt River Summit 1 in 7600 ft

Earthquake Activity

City Distance Mag. Time & Date
No recent earthquake activity has been reported nearby.
Minimum magnitude displayed is 2.5.

Coastal Water Temperatures

Place Temperature
No Stations Reporting

Nearby Weather Stations